Time;durP1;ratioP1;P1;durP2;ratioP2;P2;SDS_P1;SDS_P2;PMS_P1;PMS_P2;Temp;Humidity;BMP_temperature;BMP_pressure;BME280_temperature;BME280_humidity;BME280_pressure;Samples;Min_cycle;Max_cycle;Signal;HPM_P1;HPM_P2
2022/01/27 00:05:27;;;;;;;35.50;17.73;;;6.00;99.90;;;;;;4926115;28;192569;-71
2022/01/27 00:08:12;;;;;;;35.08;19.00;;;6.00;99.90;;;;;;4949964;28;20066;-71
2022/01/27 00:13:13;;;;;;;34.63;18.58;;;6.00;99.90;;;;;;4951260;28;20423;-71
2022/01/27 00:15:41;;;;;;;33.50;18.60;;;5.90;99.90;;;;;;4965493;28;114836;-71
2022/01/27 00:18:18;;;;;;;37.35;19.33;;;6.00;99.90;;;;;;4949237;28;20046;-71
2022/01/27 00:20:48;;;;;;;36.55;18.48;;;6.00;99.90;;;;;;4956651;28;101171;-71
2022/01/27 00:23:15;;;;;;;38.65;19.05;;;6.00;99.90;;;;;;4953131;28;20035;-70
2022/01/27 00:25:42;;;;;;;38.85;19.17;;;6.00;99.90;;;;;;4954904;28;103746;-71
2022/01/27 00:28:08;;;;;;;37.22;18.15;;;6.00;99.90;;;;;;4950994;28;20542;-70
2022/01/27 00:30:37;;;;;;;38.03;18.77;;;6.00;99.90;;;;;;4958456;28;82809;-69
2022/01/27 00:33:03;;;;;;;38.08;19.15;;;5.90;99.90;;;;;;4948935;28;21371;-69
2022/01/27 00:35:31;;;;;;;38.97;18.50;;;6.00;99.90;;;;;;4957246;28;64225;-70
2022/01/27 00:37:57;;;;;;;34.72;18.45;;;6.00;99.90;;;;;;4951000;28;20046;-70
2022/01/27 00:40:23;;;;;;;38.70;18.92;;;6.00;99.90;;;;;;4967914;28;169506;-69
2022/01/27 00:42:49;;;;;;;41.10;21.58;;;6.00;99.90;;;;;;4949848;28;20077;-70
2022/01/27 00:45:16;;;;;;;41.25;20.25;;;6.00;99.90;;;;;;4949994;28;145728;-70
2022/01/27 00:47:42;;;;;;;41.75;21.58;;;5.90;99.90;;;;;;4948221;28;20042;-69
2022/01/27 00:50:08;;;;;;;36.67;20.77;;;5.90;99.90;;;;;;4958289;28;20050;-70
2022/01/27 00:52:45;;;;;;;38.08;20.75;;;5.90;99.90;;;;;;4968347;22;20078;-82
2022/01/27 00:55:13;;;;;;;48.65;22.15;;;5.90;99.90;;;;;;4935211;28;170631;-82
2022/01/27 01:00:08;;;;;;;40.90;19.77;;;5.80;99.90;;;;;;4966524;28;40225;-83
2022/01/27 01:07:41;;;;;;;36.38;18.38;;;5.80;99.90;;;;;;4952651;22;20050;-69
2022/01/27 01:13:33;;;;;;;38.22;19.50;;;5.80;99.90;;;;;;4975222;28;20058;-69
2022/01/27 01:15:33;;;;;;;42.35;20.48;;;5.80;99.90;;;;;;4957197;28;125525;-70
2022/01/27 01:21:00;;;;;;;36.90;18.90;;;5.90;99.90;;;;;;4984477;23;103401;-83
2022/01/27 01:32:35;;;;;;;36.28;18.35;;;6.00;99.90;;;;;;4985038;28;21485;-83
2022/01/27 01:34:32;;;;;;;42.72;19.00;;;6.00;99.90;;;;;;4964802;28;20052;-83
2022/01/27 01:37:02;;;;;;;36.15;19.25;;;6.00;99.90;;;;;;4979332;28;20069;-84
2022/01/27 01:39:33;;;;;;;34.00;17.70;;;6.00;99.90;;;;;;4936027;28;191734;-84
2022/01/27 01:42:01;;;;;;;39.67;16.30;;;5.90;99.90;;;;;;4967968;28;20054;-83
2022/01/27 01:44:28;;;;;;;39.88;19.50;;;5.90;99.90;;;;;;4913925;28;21463;-84
2022/01/27 01:46:55;;;;;;;40.22;17.88;;;5.90;99.90;;;;;;4955271;28;20070;-84
2022/01/27 01:49:26;;;;;;;42.08;18.88;;;5.90;99.90;;;;;;4935094;28;230963;-84
2022/01/27 01:52:04;;;;;;;36.63;19.55;;;5.90;99.90;;;;;;4977917;28;20054;-84
2022/01/27 01:54:30;;;;;;;37.20;17.63;;;5.80;99.90;;;;;;4945200;28;129262;-84
2022/01/27 01:56:57;;;;;;;35.60;20.42;;;5.80;99.90;;;;;;4963789;28;20050;-84
2022/01/27 01:59:23;;;;;;;34.58;18.75;;;5.80;99.90;;;;;;4953162;28;158507;-84
2022/01/27 02:01:49;;;;;;;35.53;18.45;;;5.80;99.90;;;;;;4965742;28;20077;-84
2022/01/27 02:04:15;;;;;;;34.60;19.58;;;5.80;99.90;;;;;;4921567;28;252190;-84
2022/01/27 02:07:04;;;;;;;38.88;18.73;;;5.80;99.90;;;;;;4968228;28;20061;-84
2022/01/27 02:17:59;;;;;;;41.78;20.55;;;5.70;99.90;;;;;;4952265;28;20047;-83
2022/01/27 02:20:30;;;;;;;40.28;19.17;;;5.80;99.90;;;;;;4946187;28;48674;-84
2022/01/27 02:22:56;;;;;;;42.87;20.47;;;5.80;99.90;;;;;;4942968;28;20063;-84
2022/01/27 02:25:24;;;;;;;40.78;18.90;;;5.80;99.90;;;;;;4937368;28;123589;-82
2022/01/27 02:27:57;;;;;;;40.20;20.17;;;5.80;99.90;;;;;;4927771;28;20050;-84
2022/01/27 02:30:25;;;;;;;43.30;21.50;;;5.80;99.90;;;;;;4954569;28;106049;-85
2022/01/27 02:32:52;;;;;;;35.63;20.85;;;5.80;99.90;;;;;;4945477;28;20077;-83
2022/01/27 02:35:30;;;;;;;38.55;19.73;;;5.90;99.90;;;;;;4940717;28;108729;-84
2022/01/27 02:37:57;;;;;;;39.75;21.15;;;5.90;99.90;;;;;;4924878;28;20047;-84
2022/01/27 02:40:26;;;;;;;35.85;20.50;;;5.90;99.90;;;;;;4945933;28;254674;-83
2022/01/27 02:42:53;;;;;;;39.97;19.48;;;5.90;99.90;;;;;;4949177;28;20058;-84
2022/01/27 02:45:32;;;;;;;35.58;20.48;;;6.00;99.90;;;;;;4939362;28;185636;-83
2022/01/27 02:47:58;;;;;;;40.97;19.50;;;6.00;99.90;;;;;;4936472;28;20043;-84
2022/01/27 02:50:25;;;;;;;39.50;20.55;;;6.00;99.90;;;;;;4964884;28;225928;-84
2022/01/27 02:52:51;;;;;;;36.50;20.10;;;6.00;99.90;;;;;;4973272;28;20054;-84
2022/01/27 02:55:17;;;;;;;45.35;21.58;;;6.00;99.90;;;;;;4975098;28;216444;-84
2022/01/27 02:57:43;;;;;;;43.22;23.73;;;6.00;99.90;;;;;;4979322;28;20060;-84
2022/01/27 03:00:09;;;;;;;43.10;21.63;;;6.00;99.90;;;;;;4993785;28;40743;-84
2022/01/27 03:02:36;;;;;;;42.13;20.05;;;6.00;99.90;;;;;;4981645;28;20076;-84
2022/01/27 03:05:04;;;;;;;38.50;20.65;;;6.00;99.90;;;;;;4973542;28;125170;-84
2022/01/27 03:07:30;;;;;;;38.92;21.02;;;6.10;99.90;;;;;;4977329;28;20050;-84
2022/01/27 03:09:56;;;;;;;40.72;21.67;;;6.10;99.90;;;;;;4952003;28;58315;-83
2022/01/27 03:12:28;;;;;;;41.10;21.65;;;6.10;99.90;;;;;;4987714;28;20062;-83
2022/01/27 03:14:54;;;;;;;40.17;22.48;;;6.10;99.90;;;;;;4944374;28;129412;-83
2022/01/27 03:17:20;;;;;;;40.78;20.40;;;6.10;99.90;;;;;;4963545;28;20054;-84
2022/01/27 03:19:47;;;;;;;40.40;22.85;;;6.10;99.90;;;;;;4913627;28;238761;-83
2022/01/27 03:22:13;;;;;;;39.28;21.55;;;6.10;99.90;;;;;;4986388;28;20058;-84
2022/01/27 03:24:39;;;;;;;41.08;23.02;;;6.10;99.90;;;;;;4948527;28;144900;-85
2022/01/27 03:27:13;;;;;;;38.53;21.20;;;6.10;99.90;;;;;;4991906;28;20128;-85
2022/01/27 03:29:40;;;;;;;39.40;20.80;;;6.10;99.90;;;;;;4947862;28;234699;-84
2022/01/27 03:32:07;;;;;;;40.92;22.10;;;6.10;99.90;;;;;;4988948;28;20054;-85
2022/01/27 03:34:33;;;;;;;36.15;21.08;;;6.10;99.90;;;;;;4968581;28;123135;-84
2022/01/27 03:37:00;;;;;;;40.47;20.50;;;6.10;99.90;;;;;;4983819;28;20526;-84
2022/01/27 03:39:27;;;;;;;35.75;20.63;;;6.10;99.90;;;;;;4942821;28;74563;-84
2022/01/27 03:41:55;;;;;;;43.42;22.35;;;6.10;99.90;;;;;;4981620;28;20064;-85
2022/01/27 03:44:22;;;;;;;42.33;22.75;;;6.10;99.90;;;;;;4941494;28;48609;-85
2022/01/27 03:46:50;;;;;;;43.78;21.60;;;6.10;99.90;;;;;;4970629;28;20065;-84
2022/01/27 03:49:17;;;;;;;39.08;21.13;;;6.10;99.90;;;;;;4955997;28;21187;-83
2022/01/27 03:51:45;;;;;;;38.40;20.92;;;6.10;99.90;;;;;;4975625;28;20050;-83
2022/01/27 03:54:12;;;;;;;44.45;21.23;;;6.10;99.90;;;;;;4973183;28;40630;-84
2022/01/27 03:56:38;;;;;;;36.55;20.58;;;6.10;99.90;;;;;;4993299;28;20050;-83
2022/01/27 03:59:04;;;;;;;38.88;21.02;;;6.10;99.90;;;;;;4950364;28;215966;-83
2022/01/27 04:01:31;;;;;;;43.28;22.02;;;6.10;99.90;;;;;;4979088;28;20059;-83
2022/01/27 04:03:58;;;;;;;41.40;20.60;;;6.10;99.90;;;;;;4928281;28;232762;-84
2022/01/27 04:06:33;;;;;;;43.15;19.75;;;6.10;99.90;;;;;;4983092;28;20424;-84
2022/01/27 04:09:02;;;;;;;37.65;19.25;;;6.20;99.90;;;;;;4940702;28;148794;-85
2022/01/27 04:11:28;;;;;;;42.53;20.67;;;6.20;99.90;;;;;;4986277;28;20046;-84
2022/01/27 04:13:54;;;;;;;38.47;20.90;;;6.10;99.90;;;;;;4955548;28;27289;-83
2022/01/27 04:16:21;;;;;;;41.83;19.02;;;6.20;99.90;;;;;;4963804;28;20479;-84
2022/01/27 04:18:47;;;;;;;37.97;18.65;;;6.20;99.90;;;;;;4945721;28;227618;-84
2022/01/27 04:21:15;;;;;;;36.80;19.98;;;6.20;99.90;;;;;;4970466;28;20047;-84
2022/01/27 04:23:41;;;;;;;43.33;19.65;;;6.20;99.90;;;;;;4949767;28;79911;-83
2022/01/27 04:26:08;;;;;;;38.60;19.25;;;6.20;99.90;;;;;;4974543;28;20221;-84
2022/01/27 04:28:36;;;;;;;37.17;20.15;;;6.20;99.90;;;;;;4948977;28;20058;-84
2022/01/27 04:31:06;;;;;;;41.47;21.23;;;6.20;99.90;;;;;;4954285;28;250326;-83
2022/01/27 04:33:34;;;;;;;39.08;19.80;;;6.30;99.90;;;;;;4966025;28;20451;-84
2022/01/27 04:36:06;;;;;;;39.80;19.52;;;6.20;99.90;;;;;;4932359;28;182754;-85
2022/01/27 04:38:47;;;;;;;39.38;18.25;;;6.20;99.90;;;;;;4963744;28;20038;-84
2022/01/27 04:44:28;;;;;;;42.05;19.27;;;6.30;99.90;;;;;;4895291;28;92472;-84
2022/01/27 04:47:25;;;;;;;39.67;20.10;;;6.30;99.90;;;;;;4920166;28;20051;-85
2022/01/27 04:49:38;;;;;;;43.20;19.40;;;6.30;99.90;;;;;;4887380;28;46355;-84
2022/01/27 04:52:05;;;;;;;38.38;19.45;;;6.30;99.90;;;;;;4926724;29;20062;-83
2022/01/27 04:54:39;;;;;;;42.15;18.83;;;6.30;99.90;;;;;;4871673;29;159394;-84
2022/01/27 04:57:06;;;;;;;39.47;17.63;;;6.30;99.90;;;;;;4927062;29;20186;-84
2022/01/27 04:59:38;;;;;;;39.22;18.85;;;6.30;99.90;;;;;;4886346;29;137917;-84
2022/01/27 05:02:10;;;;;;;36.78;18.23;;;6.30;99.90;;;;;;4931189;28;20053;-84
2022/01/27 05:04:42;;;;;;;38.97;18.85;;;6.30;99.90;;;;;;4879650;28;201139;-84
2022/01/27 05:07:08;;;;;;;;;;;6.30;99.90;;;;;;4934697;28;20058;-84
2022/01/27 05:09:36;;;;;;;36.08;18.15;;;6.30;99.90;;;;;;4890021;28;232534;-84
2022/01/27 05:14:34;;;;;;;42.92;18.80;;;6.30;99.90;;;;;;4897560;28;104397;-84
2022/01/27 05:17:01;;;;;;;47.83;21.02;;;6.30;99.90;;;;;;4929245;29;20059;-84
2022/01/27 05:19:27;;;;;;;44.88;18.50;;;6.30;99.90;;;;;;4895246;29;159739;-84
2022/01/27 05:21:53;;;;;;;40.00;17.60;;;6.30;99.90;;;;;;4968079;28;20058;-84
2022/01/27 05:24:19;;;;;;;38.55;19.00;;;6.30;99.90;;;;;;4937896;28;196371;-84
2022/01/27 05:26:45;;;;;;;45.92;19.17;;;6.40;99.90;;;;;;5002069;28;20061;-84
2022/01/27 05:29:12;;;;;;;32.42;16.33;;;6.40;99.90;;;;;;4959781;28;249558;-84
2022/01/27 05:31:38;;;;;;;40.95;18.58;;;6.40;99.90;;;;;;4994225;28;20068;-85
2022/01/27 05:34:05;;;;;;;42.55;19.52;;;6.40;99.90;;;;;;4974084;28;20042;-84
2022/01/27 05:36:33;;;;;;;43.70;19.30;;;6.40;99.90;;;;;;4977805;28;20077;-85
2022/01/27 05:39:00;;;;;;;48.38;19.67;;;6.40;99.90;;;;;;4947646;28;150774;-85
2022/01/27 05:41:26;;;;;;;46.60;19.05;;;6.30;99.90;;;;;;4967434;28;20062;-85
2022/01/27 05:43:52;;;;;;;49.83;19.60;;;6.20;99.90;;;;;;4945196;28;61776;-85
2022/01/27 05:46:19;;;;;;;43.30;19.33;;;6.20;99.90;;;;;;4957752;28;20062;-84
2022/01/27 05:48:45;;;;;;;50.33;22.17;;;6.20;99.90;;;;;;4957076;28;52228;-84
2022/01/27 05:51:12;;;;;;;58.00;20.33;;;6.20;99.90;;;;;;4958377;28;20065;-84
2022/01/27 05:53:40;;;;;;;45.35;20.33;;;6.10;99.90;;;;;;4963729;28;22267;-85
2022/01/27 05:56:07;;;;;;;51.75;21.05;;;6.10;99.90;;;;;;4961851;28;20046;-85
2022/01/27 05:58:35;;;;;;;46.13;19.55;;;6.10;99.90;;;;;;4948077;28;20399;-85
2022/01/27 06:01:01;;;;;;;44.63;20.75;;;6.10;99.90;;;;;;4947074;28;162594;-85
2022/01/27 06:03:27;;;;;;;51.92;19.98;;;6.10;99.90;;;;;;4959212;28;20042;-85
2022/01/27 06:05:53;;;;;;;51.08;20.33;;;6.10;99.90;;;;;;4916808;28;164120;-87
2022/01/27 06:08:20;;;;;;;55.40;21.67;;;6.10;99.90;;;;;;4852967;28;20059;-86
2022/01/27 06:10:47;;;;;;;56.95;21.35;;;6.10;99.90;;;;;;4924019;28;217872;-86
2022/01/27 06:13:13;;;;;;;51.65;21.38;;;6.10;99.90;;;;;;4905629;28;20058;-85
2022/01/27 06:15:40;;;;;;;58.50;22.00;;;6.10;99.90;;;;;;4942970;28;133782;-85
2022/01/27 06:18:06;;;;;;;59.03;22.20;;;6.10;99.90;;;;;;4954533;28;20057;-85
2022/01/27 06:20:32;;;;;;;45.42;19.92;;;6.10;99.90;;;;;;4961034;28;132374;-85
2022/01/27 06:22:59;;;;;;;54.88;21.30;;;6.10;99.90;;;;;;4939229;28;20047;-86
2022/01/27 06:25:27;;;;;;;50.78;20.85;;;6.10;99.90;;;;;;4960396;28;128514;-87
2022/01/27 06:27:53;;;;;;;53.08;21.38;;;6.10;99.90;;;;;;4940638;28;20050;-86
2022/01/27 06:30:21;;;;;;;51.10;20.02;;;6.10;99.90;;;;;;4960330;28;80204;-86
2022/01/27 06:32:47;;;;;;;49.40;21.25;;;6.10;99.90;;;;;;4944729;28;20046;-87
2022/01/27 06:35:14;;;;;;;52.25;20.38;;;6.10;99.90;;;;;;4948109;28;20053;-85
2022/01/27 06:37:42;;;;;;;52.85;19.52;;;6.10;99.90;;;;;;4957611;28;20055;-85
2022/01/27 06:40:10;;;;;;;48.75;19.30;;;6.10;99.90;;;;;;4947066;28;176664;-86
2022/01/27 06:42:37;;;;;;;40.75;18.02;;;6.10;99.90;;;;;;4951213;28;20066;-84
2022/01/27 06:45:05;;;;;;;48.00;18.98;;;6.10;99.90;;;;;;4928594;28;202229;-86
2022/01/27 06:47:31;;;;;;;43.00;19.67;;;6.10;99.90;;;;;;4975585;28;20374;-85
2022/01/27 06:49:57;;;;;;;46.95;18.38;;;6.10;99.90;;;;;;4910959;28;186495;-85
2022/01/27 06:52:26;;;;;;;42.42;18.05;;;6.10;99.90;;;;;;4977544;28;20065;-86
2022/01/27 06:54:56;;;;;;;45.05;18.77;;;6.20;99.90;;;;;;4905069;28;126698;-86
2022/01/27 06:57:23;;;;;;;40.08;16.80;;;6.20;99.90;;;;;;4975079;28;20095;-85
2022/01/27 06:59:50;;;;;;;46.95;18.65;;;6.20;99.90;;;;;;4931554;28;145127;-86
2022/01/27 07:02:16;;;;;;;41.25;17.65;;;6.20;99.90;;;;;;4957982;28;20043;-85
2022/01/27 07:04:43;;;;;;;41.45;17.35;;;6.20;99.90;;;;;;4911372;28;129815;-86
2022/01/27 07:07:09;;;;;;;40.20;17.75;;;6.20;99.90;;;;;;4970675;28;20053;-86
2022/01/27 07:09:35;;;;;;;41.17;17.52;;;6.30;99.90;;;;;;4936744;28;180928;-85
2022/01/27 07:12:02;;;;;;;33.78;15.70;;;6.30;99.90;;;;;;4961458;28;20054;-86
2022/01/27 07:14:32;;;;;;;39.33;16.98;;;6.30;99.90;;;;;;4930534;28;147430;-85
2022/01/27 07:16:59;;;;;;;39.30;16.20;;;6.40;99.90;;;;;;4955650;28;20050;-86
2022/01/27 07:19:25;;;;;;;38.03;16.75;;;6.40;99.90;;;;;;4925107;23;214586;-71
2022/01/27 07:21:51;;;;;;;38.80;16.45;;;6.40;99.90;;;;;;4992212;28;20050;-70
2022/01/27 07:24:17;;;;;;;36.22;16.73;;;6.40;99.90;;;;;;4963525;28;229551;-70
2022/01/27 07:26:43;;;;;;;36.17;15.80;;;6.40;99.90;;;;;;4966436;28;20050;-70
2022/01/27 07:29:09;;;;;;;40.45;15.98;;;6.40;99.90;;;;;;4943946;28;100254;-70
2022/01/27 07:31:36;;;;;;;40.75;16.15;;;6.50;99.90;;;;;;4978667;28;20058;-71
2022/01/27 07:34:02;;;;;;;40.25;15.63;;;6.50;99.90;;;;;;4956265;23;270014;-85
2022/01/27 07:36:31;;;;;;;35.05;14.52;;;6.50;99.90;;;;;;4973066;28;20065;-85
2022/01/27 07:38:57;;;;;;;36.53;14.70;;;6.50;99.90;;;;;;4927739;28;249216;-84
2022/01/27 07:41:24;;;;;;;32.90;14.43;;;6.50;99.90;;;;;;4968158;28;20077;-85
2022/01/27 07:43:51;;;;;;;36.08;15.45;;;6.50;99.90;;;;;;4893023;28;32622;-85
2022/01/27 07:46:17;;;;;;;35.17;15.05;;;6.50;99.90;;;;;;4956127;23;20068;-69
2022/01/27 07:48:43;;;;;;;35.83;15.50;;;6.60;99.90;;;;;;4939866;28;189630;-69
2022/01/27 07:51:11;;;;;;;40.03;16.27;;;6.60;99.90;;;;;;5006212;28;20054;-68
2022/01/27 07:53:39;;;;;;;41.00;16.70;;;6.60;99.90;;;;;;4968121;28;20052;-68
2022/01/27 07:56:05;;;;;;;44.90;17.65;;;6.60;99.90;;;;;;4981234;28;20054;-69
2022/01/27 07:58:32;;;;;;;38.58;16.48;;;6.60;99.90;;;;;;4965571;28;20054;-68
2022/01/27 08:00:59;;;;;;;42.50;16.75;;;6.70;99.90;;;;;;4983030;28;235183;-69
2022/01/27 08:03:25;;;;;;;47.65;17.40;;;6.70;99.90;;;;;;4948741;28;20557;-69
2022/01/27 08:05:51;;;;;;;51.80;18.38;;;6.70;99.90;;;;;;4947280;28;156763;-68
2022/01/27 08:08:18;;;;;;;51.28;16.90;;;6.70;99.90;;;;;;4943608;28;20041;-68
2022/01/27 08:10:44;;;;;;;51.40;18.67;;;6.70;99.90;;;;;;4972067;28;207675;-69
2022/01/27 08:13:11;;;;;;;43.10;17.10;;;6.80;99.90;;;;;;4957323;28;20042;-68
2022/01/27 08:15:37;;;;;;;44.53;16.88;;;6.80;99.90;;;;;;4975684;28;115997;-68
2022/01/27 08:18:04;;;;;;;52.03;18.25;;;6.90;99.90;;;;;;4959052;28;20294;-68
2022/01/27 08:20:30;;;;;;;46.72;17.45;;;6.90;99.90;;;;;;4966088;28;136872;-69
2022/01/27 08:22:56;;;;;;;47.85;17.35;;;6.90;99.90;;;;;;4968061;28;20143;-68
2022/01/27 08:25:24;;;;;;;51.33;17.38;;;6.90;99.90;;;;;;4990879;28;52295;-68
2022/01/27 08:27:54;;;;;;;46.47;15.98;;;6.90;99.90;;;;;;4954995;28;20057;-69
2022/01/27 08:30:24;;;;;;;42.03;16.08;;;7.00;99.90;;;;;;4979035;28;97722;-69
2022/01/27 08:32:58;;;;;;;47.30;15.88;;;7.10;99.90;;;;;;4959498;28;20050;-69
2022/01/27 08:35:25;;;;;;;51.53;15.38;;;7.10;99.90;;;;;;4969310;28;90866;-69
2022/01/27 08:37:54;;;;;;;42.97;13.98;;;7.20;99.90;;;;;;4953887;28;20500;-69
2022/01/27 08:40:21;;;;;;;45.00;14.38;;;7.20;99.90;;;;;;4973075;28;178043;-69
2022/01/27 08:42:48;;;;;;;41.88;14.20;;;7.30;99.90;;;;;;4960956;28;20132;-69
2022/01/27 08:45:17;;;;;;;39.47;13.63;;;7.30;99.90;;;;;;4935148;28;202023;-67
2022/01/27 08:47:45;;;;;;;36.78;13.57;;;7.40;99.90;;;;;;4940713;28;20051;-68
2022/01/27 08:50:13;;;;;;;45.47;12.80;;;7.40;99.90;;;;;;4957716;28;147634;-69
2022/01/27 08:52:41;;;;;;;39.28;12.88;;;7.50;99.90;;;;;;4940660;28;20066;-69
2022/01/27 08:55:08;;;;;;;33.58;11.55;;;7.50;99.90;;;;;;4971888;28;20049;-69
2022/01/27 08:57:35;;;;;;;37.22;11.55;;;7.50;99.90;;;;;;4972262;28;20054;-68
2022/01/27 09:00:04;;;;;;;34.28;11.30;;;7.60;99.90;;;;;;4963688;28;168873;-68
2022/01/27 09:02:30;;;;;;;36.80;11.77;;;7.60;99.90;;;;;;4985103;28;20057;-68
2022/01/27 09:04:56;;;;;;;36.60;11.38;;;7.60;99.90;;;;;;4933826;28;234926;-69
2022/01/27 09:07:22;;;;;;;39.85;10.25;;;7.70;99.90;;;;;;4978296;28;20399;-69
2022/01/27 09:09:48;;;;;;;32.92;10.05;;;7.70;99.90;;;;;;4913661;28;148620;-69
2022/01/27 09:12:15;;;;;;;36.13;9.43;;;7.70;99.90;;;;;;4964806;28;20459;-69
2022/01/27 09:14:42;;;;;;;32.70;9.52;;;7.70;99.90;;;;;;4928677;28;89199;-69
2022/01/27 09:17:13;;;;;;;33.22;9.35;;;7.70;99.90;;;;;;4958757;28;20065;-67
2022/01/27 09:19:41;;;;;;;32.88;10.05;;;7.80;99.90;;;;;;4916038;28;191986;-69
2022/01/27 09:22:12;;;;;;;34.42;9.13;;;7.80;99.90;;;;;;4969381;28;20051;-69
2022/01/27 09:24:57;;;;;;;29.67;9.07;;;7.90;99.90;;;;;;4941497;28;203249;-69
2022/01/27 09:27:25;;;;;;;28.45;7.75;;;7.90;99.90;;;;;;4991720;28;20114;-68
2022/01/27 09:29:52;;;;;;;26.05;8.13;;;7.90;99.90;;;;;;4931754;28;131799;-67
2022/01/27 09:32:19;;;;;;;31.63;8.80;;;8.00;99.90;;;;;;4985141;28;20061;-69
2022/01/27 09:34:46;;;;;;;32.20;8.10;;;8.00;99.90;;;;;;4948277;28;148511;-68
2022/01/27 09:37:13;;;;;;;33.85;8.27;;;8.00;99.90;;;;;;4977360;28;20050;-69
2022/01/27 09:39:40;;;;;;;33.03;7.53;;;8.10;99.90;;;;;;4941169;28;26127;-69
2022/01/27 09:42:07;;;;;;;28.13;7.70;;;8.10;99.90;;;;;;4988702;28;20077;-68
2022/01/27 09:44:34;;;;;;;28.55;7.68;;;8.10;99.90;;;;;;4937299;28;212431;-70
2022/01/27 09:47:05;;;;;;;25.55;7.00;;;8.10;99.90;;;;;;4989849;28;20053;-69
2022/01/27 09:49:53;;;;;;;28.33;7.57;;;8.10;99.90;;;;;;4947535;28;44128;-68
2022/01/27 09:52:19;;;;;;;32.38;7.38;;;8.10;99.90;;;;;;4985744;28;20499;-69
2022/01/27 09:54:45;;;;;;;25.27;7.20;;;8.10;99.90;;;;;;4925019;28;188657;-69
2022/01/27 09:57:17;;;;;;;30.92;7.03;;;8.20;99.90;;;;;;4992752;28;20799;-69
2022/01/27 09:59:44;;;;;;;28.38;7.03;;;8.20;99.90;;;;;;4940983;28;116140;-69
2022/01/27 10:02:15;;;;;;;28.17;6.78;;;8.30;99.90;;;;;;4993300;28;20077;-68
2022/01/27 10:04:46;;;;;;;25.95;6.57;;;8.20;99.90;;;;;;4903404;28;223721;-68
2022/01/27 10:07:17;;;;;;;31.52;6.85;;;8.20;99.90;;;;;;4982487;28;20089;-68
2022/01/27 10:10:00;;;;;;;27.90;6.75;;;8.30;99.90;;;;;;4925623;28;207128;-68
2022/01/27 10:12:38;;;;;;;32.08;6.97;;;8.30;99.90;;;;;;4994136;28;20066;-68
2022/01/27 10:15:10;;;;;;;27.83;6.60;;;8.40;99.90;;;;;;4961403;28;20613;-68
2022/01/27 10:17:37;;;;;;;23.33;6.03;;;8.40;99.90;;;;;;4970922;28;20061;-68
2022/01/27 10:20:17;;;;;;;29.10;6.60;;;8.50;99.90;;;;;;4947797;28;112756;-68
2022/01/27 10:23:12;;;;;;;25.67;6.22;;;8.50;99.90;;;;;;4952482;28;20053;-68
2022/01/27 10:25:46;;;;;;;25.58;6.30;;;8.50;99.90;;;;;;4976502;28;72602;-68
2022/01/27 10:28:58;;;;;;;21.58;6.53;;;8.60;99.90;;;;;;4953245;28;20057;-68
2022/01/27 10:31:26;;;;;;;28.55;6.13;;;8.50;99.90;;;;;;4947509;28;20130;-68
2022/01/27 10:34:04;;;;;;;26.35;6.00;;;8.60;99.90;;;;;;4935857;28;68698;-69
2022/01/27 10:36:35;;;;;;;24.10;5.30;;;8.60;99.90;;;;;;4952533;28;20058;-69
2022/01/27 10:39:12;;;;;;;29.05;6.05;;;8.60;99.90;;;;;;4940895;28;181711;-69
2022/01/27 10:41:54;;;;;;;27.60;6.15;;;8.60;99.90;;;;;;4987188;28;20050;-69
2022/01/27 10:44:20;;;;;;;31.00;6.05;;;8.70;99.90;;;;;;4942395;28;31326;-69
2022/01/27 10:47:10;;;;;;;30.70;5.70;;;8.60;99.90;;;;;;4974131;28;20049;-69
2022/01/27 10:49:43;;;;;;;33.75;6.45;;;8.70;99.90;;;;;;4945617;28;216860;-69
2022/01/27 10:52:17;;;;;;;25.30;5.63;;;8.70;99.90;;;;;;4988782;28;20054;-69
2022/01/27 10:54:55;;;;;;;25.17;6.05;;;8.80;99.90;;;;;;4944478;28;20058;-68
2022/01/27 10:57:26;;;;;;;26.58;6.00;;;8.70;99.90;;;;;;4978722;28;20058;-68
2022/01/27 11:00:14;;;;;;;22.55;4.95;;;8.70;99.90;;;;;;4950214;28;40620;-69
2022/01/27 11:02:56;;;;;;;25.52;5.63;;;8.80;99.90;;;;;;4953620;28;20058;-69
2022/01/27 11:05:28;;;;;;;24.90;5.40;;;8.80;99.90;;;;;;4948964;28;112938;-70
2022/01/27 11:07:54;;;;;;;32.83;5.70;;;8.90;99.90;;;;;;4932980;28;20057;-69
2022/01/27 11:10:20;;;;;;;29.05;5.63;;;8.80;99.90;;;;;;4949281;28;114555;-69
2022/01/27 11:12:47;;;;;;;25.27;5.22;;;8.90;99.90;;;;;;4954649;28;20054;-68
2022/01/27 11:15:18;;;;;;;29.58;5.22;;;8.90;99.90;;;;;;4969046;28;248334;-69
2022/01/27 11:17:46;;;;;;;25.80;5.32;;;8.90;99.90;;;;;;4955796;28;20050;-69
2022/01/27 11:20:31;;;;;;;18.85;4.35;;;8.90;99.90;;;;;;4969725;28;120969;-69
2022/01/27 11:23:24;;;;;;;27.55;4.38;;;8.80;99.90;;;;;;4960556;28;20050;-69
2022/01/27 11:25:51;;;;;;;23.98;4.28;;;8.80;99.90;;;;;;4949009;28;138405;-68
2022/01/27 11:28:21;;;;;;;24.40;5.07;;;8.90;99.90;;;;;;4962380;28;20038;-68
2022/01/27 11:31:18;;;;;;;25.77;5.05;;;8.90;99.90;;;;;;4977504;28;116298;-69
2022/01/27 11:33:59;;;;;;;27.92;4.70;;;8.90;99.90;;;;;;4948244;28;31424;-68
2022/01/27 11:36:25;;;;;;;28.92;4.50;;;8.90;99.90;;;;;;4986194;28;20081;-69
2022/01/27 11:38:51;;;;;;;23.55;4.72;;;8.90;99.90;;;;;;4953474;28;66215;-69
2022/01/27 11:41:43;;;;;;;22.08;4.55;;;8.90;99.90;;;;;;4982334;28;20062;-69
2022/01/27 11:44:32;;;;;;;26.75;4.65;;;8.90;99.90;;;;;;4955744;28;97593;-69
2022/01/27 11:47:17;;;;;;;30.15;4.72;;;8.90;99.90;;;;;;4962194;28;20046;-68
2022/01/27 11:52:29;;;;;;;27.05;4.15;;;9.00;99.90;;;;;;4982256;28;20202;-69
2022/01/27 11:54:57;;;;;;;22.88;4.35;;;9.00;99.90;;;;;;4964656;28;20907;-69
2022/01/27 11:57:41;;;;;;;33.85;5.40;;;9.10;99.90;;;;;;4988487;28;20049;-68
2022/01/27 12:00:09;;;;;;;26.98;4.53;;;9.10;99.90;;;;;;4925454;28;44263;-69
2022/01/27 12:02:57;;;;;;;22.52;4.35;;;9.20;99.90;;;;;;4968427;28;20066;-68
2022/01/27 12:05:39;;;;;;;21.23;3.90;;;9.10;99.90;;;;;;4954100;28;144202;-68
2022/01/27 12:08:14;;;;;;;23.40;4.47;;;9.10;99.90;;;;;;4954631;28;20053;-68
2022/01/27 12:10:52;;;;;;;25.77;4.43;;;9.10;99.90;;;;;;4979949;28;196622;-69
2022/01/27 12:13:36;;;;;;;29.50;4.63;;;9.10;99.90;;;;;;4948898;28;20050;-69
2022/01/27 12:19:10;;;;;;;28.80;4.72;;;9.10;99.90;;;;;;4933169;28;20038;-69
2022/01/27 12:21:43;;;;;;;28.90;4.40;;;9.10;99.90;;;;;;4949211;28;20106;-69
2022/01/27 12:26:56;;;;;;;31.50;4.20;;;9.10;99.90;;;;;;4997927;28;20065;-69
2022/01/27 12:30:01;;;;;;;24.58;4.07;;;9.20;99.90;;;;;;4927450;28;138282;-69
2022/01/27 12:32:32;;;;;;;26.65;3.90;;;9.10;99.90;;;;;;4983520;28;20054;-69
2022/01/27 12:35:02;;;;;;;27.65;3.75;;;9.10;99.90;;;;;;4917015;28;233925;-69
2022/01/27 12:37:37;;;;;;;33.53;4.30;;;9.10;99.90;;;;;;4984241;28;20077;-69
2022/01/27 12:40:05;;;;;;;27.65;4.13;;;9.10;99.90;;;;;;4924369;28;60178;-69
2022/01/27 12:42:38;;;;;;;28.48;3.92;;;9.10;99.90;;;;;;4979082;28;20065;-69
2022/01/27 12:45:14;;;;;;;26.90;3.97;;;9.00;99.90;;;;;;4910947;28;30942;-69
2022/01/27 12:47:41;;;;;;;25.63;4.32;;;9.00;99.90;;;;;;4953001;28;20057;-68
2022/01/27 12:50:11;;;;;;;26.00;3.92;;;9.00;99.90;;;;;;4952531;28;84712;-68
2022/01/27 12:52:42;;;;;;;25.30;3.65;;;9.00;99.90;;;;;;4966289;28;20081;-68
2022/01/27 12:55:12;;;;;;;27.15;4.05;;;9.00;99.90;;;;;;4941621;28;20051;-69
2022/01/27 12:57:40;;;;;;;28.42;4.68;;;9.00;99.90;;;;;;4954189;28;20466;-69
2022/01/27 13:00:11;;;;;;;32.55;4.35;;;9.10;99.90;;;;;;4935999;28;24079;-69
2022/01/27 13:02:38;;;;;;;25.52;3.75;;;9.00;99.90;;;;;;4957435;28;20050;-68
2022/01/27 13:05:07;;;;;;;30.73;4.65;;;9.10;99.90;;;;;;4971384;28;218056;-69
2022/01/27 13:07:36;;;;;;;28.00;3.75;;;9.10;99.90;;;;;;4978025;28;20514;-67
2022/01/27 13:10:09;;;;;;;19.50;3.53;;;9.10;99.90;;;;;;4939968;28;102935;-69
2022/01/27 13:12:43;;;;;;;26.10;3.60;;;9.20;99.90;;;;;;4967531;28;20508;-69
2022/01/27 13:15:14;;;;;;;24.05;3.78;;;9.20;99.90;;;;;;4919637;28;49111;-69
2022/01/27 13:17:50;;;;;;;26.65;4.10;;;9.20;99.90;;;;;;4934966;28;20063;-70
2022/01/27 13:20:28;;;;;;;25.73;3.97;;;9.20;99.90;;;;;;4960732;28;200100;-70
2022/01/27 13:22:59;;;;;;;26.48;3.72;;;9.20;99.90;;;;;;4953274;28;20051;-69
2022/01/27 13:25:40;;;;;;;26.88;3.95;;;9.20;99.90;;;;;;4955871;28;70898;-69
2022/01/27 13:28:17;;;;;;;34.13;4.35;;;9.20;99.90;;;;;;4925204;28;20060;-69
2022/01/27 13:30:44;;;;;;;29.63;4.35;;;9.10;99.90;;;;;;4960259;28;148960;-69
2022/01/27 13:33:18;;;;;;;26.58;3.90;;;9.10;99.90;;;;;;4953865;28;20038;-69
2022/01/27 13:35:45;;;;;;;31.17;4.05;;;9.10;99.90;;;;;;4959594;28;20512;-69
2022/01/27 13:41:16;;;;;;;29.02;3.72;;;9.10;99.90;;;;;;4967749;28;107932;-69
2022/01/27 13:43:45;;;;;;;26.23;3.95;;;9.10;99.90;;;;;;4936746;28;213707;-71
2022/01/27 13:46:31;;;;;;;28.05;4.43;;;9.10;99.90;;;;;;4952474;28;20049;-71